Impacts METAR Board
IDs:

KPHX - Phoenix/Sky Harbor, AZ, US

Updated at: 1300 UTC 25 Jun 2019
Potential Impact None Slight Moderate High
Time 25/01Z 25/02Z 25/03Z 25/04Z 25/05Z 25/06Z 25/07Z 25/08Z 25/09Z 25/10Z 25/11Z 25/12Z 25/13Z
Temp101 100 99 98 92 88 86 88 85 82 80 78 77
Dewpt19 19 21 22 29 32 33 30 33 34 32 35 32
Altim29.71 29.71 29.71 29.71 29.73 29.73 29.73 29.74 29.74 29.74 29.75 29.76 29.77
VIS10 10 10 10 10 10 10 10 10 10 10 10 10
CIG-- -- -- -- -- -- -- -- -- -- -- -- --
CoverFEWFEWFEWCLRCLRCLRCLRCLRCLRCLRCLRSCTFEW
FltCatVFRVFRVFRVFRVFRVFRVFRVFRVFRVFRVFRVFRVFR
WX--------------------------
WDir270260290280023023034036014011010090
WSpd11 8 6 5 0 6 3 7 7 3 6 9 9
WGst18 -- -- -- -- -- -- -- -- -- -- -- --
Raw hourly METARs
KPHX 250051Z 27011G18KT 10SM FEW060 38/M07 A2971 RMK AO2 SLP038 FU FEW060 DSNT NE-E T03831072
KPHX 250151Z COR 26008KT 10SM FEW060 38/M07 A2971 RMK AO2 SLP039 FU FEW060 DSNT NE-E T03781072
KPHX 250251Z 29006KT 10SM FEW060 37/M06 A2971 RMK AO2 SLP039 FU FEW060 DSNT NE-E T03721061 56004
KPHX 250351Z 28005KT 10SM CLR 37/M06 A2971 RMK AO2 SLP039 T03671056
KPHX 250451Z 00000KT 10SM CLR 33/M02 A2973 RMK AO2 SLP045 T03331017
KPHX 250551Z 23006KT 10SM CLR 31/00 A2973 RMK AO2 SLP045 T03110000 10389 20311 51007
KPHX 250651Z 23003KT 10SM CLR 30/01 A2973 RMK AO2 SLP045 T03000006 403940239
KPHX 250751Z 34007KT 10SM CLR 31/M01 A2974 RMK AO2 SLP049 T03111011
KPHX 250851Z 36007KT 10SM CLR 29/01 A2974 RMK AO2 SLP048 T02940006 50003
KPHX 250951Z 14003KT 10SM CLR 28/01 A2974 RMK AO2 SLP049 T02780011
KPHX 251051Z 11006KT 10SM CLR 27/00 A2975 RMK AO2 SLP051 T02670000
KPHX 251151Z 10009KT 10SM SCT100 26/02 A2976 RMK AO2 SLP056 T02560017 10322 20256 53007
KPHX 251251Z 09009KT 10SM FEW060 25/00 A2977 RMK AO2 SLP062 FU FEW060 DSNT NE-E T02500000



Page loaded:  13:45 UTC  |   06:45 AM Pacific  |   07:45 AM Mountain  |   08:45 AM Central  |   09:45 AM Eastern

 

ADVISORIES

FORECASTS

FORECASTS

OBSERVATIONS

USER TOOLS

ABOUT US